• Join FlightAware (Why Join?)
  • Login
  • US Flag 
05:06AM EDT


 

Airport Tracker/Info


-or-


 

Live Flight TrackerFlight Track Log ✈ N800K ✈ 11-Jun-2013 ✈ 14A - KGMU

Flight Track Log - Related Links

Times and Time Zones

All times are in EDT time to prevent confusion due to time zone crossing. See the N800K flight status page for this flight to view local times or setup timezone preferences in your user account.

Time Position Orientation Groundspeed Altitude Reporting Facility
EDT Latitude Longitude Course Direction KTS MPH feet Rate Location/Type
02:38PM 35.6081 -80.9378 216° Southwest 97 112 1,900  Level Atlanta Center
02:39PM 35.5897 -80.9539 216° Southwest 106 122 2,400 600 Climbing Atlanta Center
02:40PM 35.5719 -80.9878 237° Southwest 108 124 3,000 240 Climbing Atlanta Center
02:41PM 35.5519 -81.0242 236° Southwest 138 159 3,000  Level Atlanta Center
02:42PM 35.5300 -81.0708 240° Southwest 142 163 3,000  Level Atlanta Center
02:43PM 35.5122 -81.1122 242° Southwest 130 150 3,000  Level Atlanta Center
02:44PM 35.4883 -81.1539 235° Southwest 135 155 3,000  Level Atlanta Center
02:45PM 35.4703 -81.1878 237° Southwest 134 154 3,000  Level Atlanta Center
02:46PM 35.4464 -81.2344 238° Southwest 138 159 3,000 240 Level Atlanta Center
02:47PM 35.4303 -81.2656 238° Southwest 125 144 3,500 540 Climbing Atlanta Center
02:48PM 35.4142 -81.2917 233° Southwest 107 123 4,000 240 Climbing Atlanta Center
02:49PM 35.3944 -81.3356 241° Southwest 140 161 4,000  Level Atlanta Center
02:50PM 35.3703 -81.3747 233° Southwest 144 166 4,000  Level Atlanta Center
02:51PM 35.3503 -81.4186 241° Southwest 141 162 4,000  Level Atlanta Center
02:52PM 35.3281 -81.4550 233° Southwest 140 161 4,000  Level Atlanta Center
02:53PM 35.3081 -81.4936 238° Southwest 136 157 4,000  Level Atlanta Center
02:54PM 35.2819 -81.5453 238° Southwest 143 165 4,000  Level Atlanta Center
02:56PM 35.2489 -81.5973 232° Southwest  Level FlightAware Approximate
03:03PM 35.1046 -81.8576 239° Southwest  Level FlightAware Approximate
03:04PM 35.0855 -81.8959 239° Southwest  Level FlightAware Approximate
03:05PM 35.0663 -81.9341 239° Southwest  Level FlightAware Approximate
03:06PM 35.0458 -81.9709 219° Southwest  Level FlightAware Approximate
03:07PM 35.0174 -81.9993 219° Southwest  Level FlightAware Approximate
03:08PM 35.0044 -82.0391 236° Southwest  Level FlightAware Approximate
03:09PM 34.9840 -82.0764 236° Southwest  Level FlightAware Approximate
03:10PM 34.9635 -82.1136 236° Southwest  Level FlightAware Approximate
03:11PM 34.9431 -82.1508 236° Southwest  Level FlightAware Approximate
03:12PM 34.9227 -82.1880 236° Southwest  Level FlightAware Approximate
03:13PM 34.9022 -82.2251 236° Southwest  Level FlightAware Approximate
03:14PM 34.8817 -82.2623 236° Southwest  Level FlightAware Approximate
03:15PM 34.8613 -82.2994 236° Southwest  Level FlightAware Approximate
03:16PM 34.8408 -82.3365 236° Southwest  Level FlightAware Approximate
03:17PM 34.8333 -82.3500 236° Southwest  Level FlightAware Approximate
03:18PM 34.8479 -82.3500 236° Southwest  Level Estimated
03:19PM 34.8479 -82.3500 236° Southwest  Level Estimated
03:20PM 34.8479 -82.3500 236° Southwest  Level Estimated
03:21PM 34.8479 -82.3500 236° Southwest  Level Estimated
03:22PM 34.8479 -82.3500 236° Southwest  Level Estimated
03:23PM 34.8479 -82.3500 236° Southwest  Level Estimated